• Join FlightAware (Why Join?)
  • Login
  • US Flag 
05:03PM EDT


 

Airport Tracker/Info


-or-


 

Live Flight TrackerFlight Track Log ✈ SKW5564 ✈ 27-Oct-2013 ✈ KATL - KDEN

Flight Track Log - Related Links

Times and Time Zones

All times are in EDT time to prevent confusion due to time zone crossing. See the SKW5564 flight status page for this flight to view local times or setup timezone preferences in your user account.

Time Position Orientation Groundspeed Altitude Reporting Facility
EDT Latitude Longitude Course Direction KTS MPH feet Rate Location/Type
09:15AM 33.8742 -84.9951 297° West  Level Estimated
09:16AM 33.9214 -85.1089 297° West  Level Estimated
09:17AM 33.9685 -85.2229 297° West  Level Estimated
09:18AM 34.0155 -85.3370 296° West  Level Estimated
09:19AM 34.0624 -85.4512 296° West  Level Estimated
09:20AM 34.1092 -85.5655 296° West  Level Estimated
09:21AM 34.1558 -85.6800 296° West  Level Estimated
09:22AM 34.2024 -85.7945 296° West  Level Estimated
09:23AM 34.2489 -85.9092 296° West  Level Estimated
09:24AM 34.2952 -86.0241 296° West  Level Estimated
09:25AM 34.3414 -86.1391 296° West  Level Estimated
09:26AM 34.3876 -86.2541 296° West  Level Estimated
09:27AM 34.4336 -86.3694 296° West  Level Estimated
09:28AM 34.4795 -86.4847 296° West  Level Estimated
09:29AM 34.5253 -86.6002 296° West  Level Estimated
09:30AM 34.5710 -86.7158 296° West  Level Estimated
09:31AM 34.6166 -86.8315 296° West  Level Estimated
09:32AM 34.6621 -86.9473 296° West  Level Estimated
09:33AM 34.7075 -87.0633 295° West  Level Estimated
09:34AM 34.7527 -87.1794 295° West  Level Estimated
09:35AM 34.7979 -87.2957 295° West  Level Estimated
09:36AM 34.8429 -87.4120 295° West  Level Estimated
09:37AM 34.8879 -87.5285 295° West  Level Estimated
09:38AM 34.9327 -87.6451 295° West  Level Estimated
09:39AM 34.9774 -87.7619 295° West  Level Estimated
09:40AM 35.0220 -87.8787 295° West  Level Estimated
09:41AM 35.0665 -87.9957 295° West  Level Estimated
09:42AM 35.1108 -88.1128 295° West  Level Estimated
09:43AM 35.1551 -88.2301 295° West  Level Estimated
09:44AM 35.1992 -88.3475 295° West  Level Estimated
09:45AM 35.2433 -88.4650 295° West  Level Estimated
09:46AM 35.2872 -88.5826 295° West  Level Estimated
09:47AM 35.3310 -88.7004 295° West  Level Estimated
09:48AM 35.3747 -88.8183 294° West  Level Estimated
09:49AM 35.4183 -88.9363 294° West  Level Estimated
09:50AM 35.4617 -89.0544 294° West  Level Estimated
09:51AM 35.5051 -89.1727 294° West  Level Estimated
09:52AM 35.5483 -89.2911 294° West  Level Estimated
09:53AM 35.5914 -89.4096 294° West  Level Estimated
09:54AM 35.6344 -89.5283 294° West  Level Estimated
09:55AM 35.6773 -89.6471 294° West  Level Estimated
09:56AM 35.7201 -89.7660 294° West  Level Estimated
09:57AM 35.7627 -89.8850 294° West  Level Estimated
09:58AM 35.8052 -90.0042 294° West  Level Estimated
09:59AM 35.8476 -90.1235 294° West  Level Estimated
10:00AM 35.8899 -90.2429 294° West  Level Estimated
10:01AM 35.9321 -90.3624 294° West  Level Estimated
10:02AM 35.9742 -90.4821 294° West  Level Estimated
10:03AM 36.0161 -90.6019 293° West  Level Estimated
10:04AM 36.0579 -90.7218 293° West  Level Estimated
10:05AM 36.0996 -90.8419 293° West  Level Estimated
10:06AM 36.1412 -90.9621 293° West  Level Estimated
10:07AM 36.1827 -91.0824 293° West  Level Estimated
10:08AM 36.2240 -91.2028 293° West  Level Estimated
10:09AM 36.2652 -91.3234 293° West  Level Estimated
10:10AM 36.3063 -91.4441 293° West  Level Estimated
10:11AM 36.3473 -91.5649 293° West  Level Estimated
10:12AM 36.3881 -91.6859 293° West  Level Estimated
10:13AM 36.4289 -91.8069 293° West  Level Estimated
10:14AM 36.4695 -91.9281 293° West  Level Estimated
10:15AM 36.5100 -92.0495 293° West  Level Estimated
10:16AM 36.5503 -92.1709 293° West  Level Estimated
10:17AM 36.5906 -92.2925 292° West  Level Estimated
10:18AM 36.6307 -92.4142 292° West  Level Estimated
10:19AM 36.6707 -92.5360 292° West  Level Estimated
10:20AM 36.7106 -92.6580 292° West  Level Estimated
10:21AM 36.7503 -92.7801 292° West  Level Estimated
10:22AM 36.7899 -92.9023 292° West  Level Estimated
10:23AM 36.8294 -93.0246 292° West  Level Estimated
10:24AM 36.8688 -93.1471 292° West  Level Estimated
10:25AM 36.9080 -93.2697 292° West  Level Estimated
10:26AM 36.9471 -93.3924 292° West  Level Estimated
10:27AM 36.9861 -93.5152 292° West  Level Estimated
10:28AM 37.0250 -93.6382 292° West  Level Estimated
10:29AM 37.0637 -93.7613 292° West  Level Estimated
10:30AM 37.1023 -93.8845 291° West  Level Estimated
10:31AM 37.1408 -94.0079 291° West  Level Estimated
10:32AM 37.1792 -94.1313 291° West  Level Estimated
10:33AM 37.2174 -94.2550 291° West  Level Estimated
10:34AM 37.2555 -94.3787 291° West  Level Estimated
10:35AM 37.2935 -94.5025 291° West  Level Estimated
10:36AM 37.3313 -94.6265 291° West  Level Estimated
10:37AM 37.3690 -94.7506 291° West  Level Estimated
10:38AM 37.4066 -94.8748 291° West  Level Estimated
10:39AM 37.4440 -94.9992 291° West  Level Estimated
10:40AM 37.4814 -95.1236 291° West  Level Estimated
10:41AM 37.5186 -95.2482 291° West  Level Estimated
10:42AM 37.5556 -95.3729 291° West  Level Estimated
10:43AM 37.5925 -95.4978 291° West  Level Estimated
10:44AM 37.6293 -95.6227 290° West  Level Estimated
10:45AM 37.6660 -95.7478 290° West  Level Estimated
10:46AM 37.7025 -95.8730 290° West  Level Estimated
10:47AM 37.7389 -95.9984 290° West  Level Estimated
10:48AM 37.7752 -96.1238 290° West  Level Estimated
10:49AM 37.8113 -96.2494 290° West  Level Estimated
10:50AM 37.8473 -96.3751 290° West  Level Estimated
10:51AM 37.8832 -96.5010 290° West  Level Estimated
10:52AM 37.9189 -96.6269 290° West  Level Estimated
10:53AM 37.9545 -96.7530 290° West  Level Estimated
10:54AM 37.9900 -96.8792 290° West  Level Estimated
10:55AM 38.0253 -97.0055 290° West  Level Estimated
10:56AM 38.0605 -97.1319 290° West  Level Estimated
10:57AM 38.0955 -97.2585 289° West  Level Estimated
10:58AM 38.1305 -97.3852 289° West  Level Estimated
10:59AM 38.1652 -97.5120 289° West  Level Estimated
11:00AM 38.1999 -97.6389 289° West  Level Estimated
11:01AM 38.2344 -97.7659 289° West  Level Estimated
11:02AM 38.2688 -97.8931 289° West  Level Estimated
11:03AM 38.3030 -98.0204 289° West  Level Estimated
11:04AM 38.3371 -98.1478 289° West  Level Estimated
11:05AM 38.3711 -98.2753 289° West  Level Estimated
11:06AM 38.4049 -98.4029 289° West  Level Estimated
11:07AM 38.4386 -98.5307 289° West  Level Estimated
11:08AM 38.4721 -98.6586 289° West  Level Estimated
11:09AM 38.5055 -98.7866 288° West  Level Estimated
11:10AM 38.5388 -98.9147 288° West  Level Estimated
11:11AM 38.5719 -99.0429 288° West  Level Estimated
11:12AM 38.6049 -99.1713 288° West  Level Estimated
11:13AM 38.6377 -99.2998 288° West  Level Estimated
11:14AM 38.6704 -99.4284 288° West  Level Estimated
11:15AM 38.7030 -99.5571 288° West  Level Estimated
11:16AM 38.7354 -99.6859 288° West  Level Estimated
11:17AM 38.7677 -99.8148 288° West  Level Estimated
11:18AM 38.7999 -99.9439 288° West  Level Estimated
11:19AM 38.8318 -100.0731 288° West  Level Estimated
11:20AM 38.8637 -100.2023 288° West  Level Estimated
11:21AM 38.8954 -100.3318 288° West  Level Estimated
11:22AM 38.9270 -100.4613 287° West  Level Estimated
11:23AM 38.9584 -100.5909 287° West  Level Estimated
11:24AM 38.9897 -100.7207 287° West  Level Estimated
11:25AM 39.0208 -100.8505 287° West  Level Estimated
11:26AM 39.0518 -100.9805 287° West  Level Estimated
11:27AM 39.0827 -101.1106 287° West  Level Estimated
11:28AM 39.1134 -101.2408 287° West  Level Estimated
11:29AM 39.1439 -101.3711 287° West  Level Estimated
11:30AM 39.1744 -101.5016 287° West  Level Estimated
11:31AM 39.2046 -101.6321 287° West  Level Estimated
11:32AM 39.2347 -101.7628 287° West  Level Estimated
11:33AM 39.2647 -101.8935 287° West  Level Estimated
11:34AM 39.2946 -102.0244 286° West  Level Estimated
11:35AM 39.3242 -102.1554 286° West  Level Estimated
11:36AM 39.3538 -102.2865 286° West  Level Estimated
11:37AM 39.3832 -102.4177 286° West  Level Estimated
11:38AM 39.4124 -102.5490 286° West  Level Estimated
11:39AM 39.4415 -102.6805 286° West  Level Estimated
11:40AM 39.4705 -102.8120 286° West  Level Estimated
11:41AM 39.4993 -102.9437 286° West  Level Estimated
11:42AM 39.5279 -103.0754 286° West  Level Estimated
11:43AM 39.5564 -103.2073 286° West  Level Estimated
11:44AM 39.5848 -103.3393 286° West  Level Estimated
11:45AM 39.6130 -103.4714 286° West  Level Estimated
11:46AM 39.6410 -103.6036 285° West  Level Estimated
11:47AM 39.6689 -103.7359 285° West  Level Estimated
11:48AM 39.6967 -103.8683 285° West  Level Estimated
11:49AM 39.7243 -104.0008 285° West  Level Estimated
11:50AM 39.7517 -104.1334 285° West  Level Estimated
11:51AM 39.7790 -104.2661 285° West  Level Estimated
11:52AM 39.8062 -104.3989 285° West  Level Estimated
11:53AM 39.8332 -104.5319 285° West  Level Estimated
11:54AM 39.8600 -104.6649 285° West  Level Estimated
11:55AM 39.8617 -104.6732 285° West  Level Estimated
11:56AM 39.8617 -104.6732 142° Southeast  Level Estimated
11:57AM 39.8617 -104.6732 142° Southeast  Level Estimated
11:58AM 39.8617 -104.6732 142° Southeast  Level Estimated
11:59AM 39.8617 -104.6732 142° Southeast  Level Estimated